createdAt,value
2022-09-13T00:01:05.006Z,2.83
2022-09-13T00:03:32.815Z,2.80
2022-09-13T00:06:16.433Z,2.87
2022-09-13T00:08:44.743Z,2.90
2022-09-13T00:11:26.072Z,2.90
2022-09-13T00:13:55.187Z,2.87
2022-09-13T00:16:26.290Z,2.83
2022-09-13T00:18:55.096Z,2.87
2022-09-13T00:21:23.964Z,2.80
2022-09-13T00:23:54.096Z,3.00
2022-09-13T00:26:27.753Z,2.90
2022-09-13T00:28:58.482Z,2.90
2022-09-13T00:31:28.076Z,2.80
2022-09-13T00:33:55.975Z,2.90
2022-09-13T00:36:22.968Z,2.90
2022-09-13T00:38:50.667Z,2.90
2022-09-13T00:41:20.900Z,2.80
2022-09-13T00:43:55.417Z,2.87
2022-09-13T00:46:45.374Z,2.87
2022-09-13T00:49:20.140Z,2.80
2022-09-13T00:51:58.723Z,2.83
2022-09-13T00:54:35.168Z,2.80
2022-09-13T00:57:05.422Z,2.87
2022-09-13T00:59:42.826Z,2.83
2022-09-13T01:02:10.815Z,2.87
2022-09-13T01:04:39.306Z,2.70
2022-09-13T01:07:13.645Z,2.73
2022-09-13T01:09:46.175Z,2.80
2022-09-13T01:12:44.046Z,2.73
2022-09-13T01:15:11.964Z,2.77
2022-09-13T01:17:39.837Z,2.70
2022-09-13T01:20:10.319Z,2.83
2022-09-13T01:22:55.613Z,2.77
2022-09-13T01:26:13.436Z,2.70
2022-09-13T01:29:23.545Z,2.80
2022-09-13T01:33:06.217Z,2.73
2022-09-13T01:36:05.392Z,2.77
2022-09-13T01:39:05.877Z,2.80
2022-09-13T01:41:57.787Z,2.80
2022-09-13T01:44:49.291Z,2.77
2022-09-13T01:47:34.681Z,2.90
2022-09-13T01:50:30.046Z,2.80
2022-09-13T01:53:20.823Z,2.80
2022-09-13T01:56:21.026Z,2.77
2022-09-13T01:59:16.029Z,2.80
2022-09-13T02:02:02.474Z,2.80
2022-09-13T02:04:38.946Z,2.90
2022-09-13T02:07:27.798Z,2.70
2022-09-13T02:10:07.614Z,2.80
2022-09-13T02:12:37.977Z,2.70
2022-09-13T02:15:16.325Z,2.80
2022-09-13T02:18:25.755Z,2.83
2022-09-13T02:21:01.350Z,2.87
2022-09-13T02:23:49.444Z,2.80
2022-09-13T02:26:18.454Z,2.80
2022-09-13T02:28:55.486Z,2.80
2022-09-13T02:31:32.029Z,2.90
2022-09-13T02:34:06.107Z,2.87
2022-09-13T02:36:40.723Z,2.90
2022-09-13T02:39:24.602Z,2.80
2022-09-13T02:42:12.323Z,2.80
2022-09-13T02:44:52.799Z,2.73
2022-09-13T02:48:05.799Z,2.77
2022-09-13T02:51:03.424Z,2.93
2022-09-13T02:53:39.851Z,2.90
2022-09-13T02:56:35.390Z,2.97
2022-09-13T02:59:07.453Z,2.80
2022-09-13T03:01:37.584Z,2.83
2022-09-13T03:04:05.595Z,2.90
2022-09-13T03:06:33.103Z,2.93
2022-09-13T03:09:05.823Z,2.80
2022-09-13T03:12:06.945Z,2.80
2022-09-13T03:14:46.085Z,2.83
2022-09-13T03:17:37.443Z,2.80
2022-09-13T03:20:14.732Z,2.73
2022-09-13T03:23:23.411Z,2.90
2022-09-13T03:26:12.528Z,2.73
2022-09-13T03:29:31.530Z,2.80
2022-09-13T03:32:27.037Z,2.87
2022-09-13T03:35:37.016Z,2.80
2022-09-13T03:38:21.985Z,2.80
2022-09-13T03:41:10.048Z,2.80
2022-09-13T03:43:48.768Z,2.80
2022-09-13T03:46:31.040Z,2.87
2022-09-13T03:49:05.154Z,2.80
2022-09-13T03:51:33.890Z,2.87
2022-09-13T03:54:06.628Z,2.80
2022-09-13T03:56:34.192Z,2.77
2022-09-13T03:59:01.634Z,2.83
2022-09-13T04:01:29.348Z,2.80
2022-09-13T04:03:57.264Z,2.80
2022-09-13T04:06:24.878Z,2.80
2022-09-13T04:08:52.400Z,2.70
2022-09-13T04:11:21.396Z,2.90
2022-09-13T04:13:48.967Z,2.87
2022-09-13T04:16:16.462Z,2.83
2022-09-13T04:18:44.033Z,2.90
2022-09-13T04:21:11.793Z,2.77
2022-09-13T04:23:38.709Z,2.80
2022-09-13T04:26:06.661Z,2.80
2022-09-13T04:28:34.152Z,2.80
2022-09-13T04:31:01.725Z,2.80
2022-09-13T04:33:29.173Z,2.83
2022-09-13T04:36:01.117Z,2.80
2022-09-13T04:38:30.029Z,2.80
2022-09-13T04:40:57.441Z,2.80
2022-09-13T04:43:25.233Z,2.83
2022-09-13T04:45:52.713Z,2.73
2022-09-13T04:48:20.214Z,2.80
2022-09-13T04:50:49.257Z,2.87
2022-09-13T04:53:18.045Z,2.80
2022-09-13T04:55:45.481Z,2.77
2022-09-13T04:58:14.869Z,2.87
2022-09-13T05:00:43.158Z,2.90
2022-09-13T05:03:10.699Z,2.87
2022-09-13T05:05:38.129Z,2.90
2022-09-13T05:08:05.554Z,2.80
2022-09-13T05:10:32.947Z,2.80
2022-09-13T05:12:59.998Z,2.93
2022-09-13T05:15:27.482Z,2.70
2022-09-13T05:17:55.075Z,2.80
2022-09-13T05:20:25.722Z,2.90
2022-09-13T05:22:55.758Z,2.80
2022-09-13T05:25:29.162Z,2.90
2022-09-13T05:27:56.809Z,2.90
2022-09-13T05:30:24.204Z,2.90
2022-09-13T05:32:51.746Z,2.80
2022-09-13T05:35:18.718Z,2.73
2022-09-13T05:37:46.202Z,2.80
2022-09-13T05:40:13.703Z,2.70
2022-09-13T05:42:41.255Z,2.93
2022-09-13T05:45:09.295Z,2.80
2022-09-13T05:47:36.750Z,2.80
2022-09-13T05:50:19.141Z,2.77
2022-09-13T05:52:55.802Z,3.20
2022-09-13T05:55:23.570Z,2.90
2022-09-13T05:57:54.099Z,2.80
2022-09-13T06:00:21.616Z,2.83
2022-09-13T06:02:49.276Z,2.70
2022-09-13T06:05:16.719Z,2.70
2022-09-13T06:07:44.410Z,2.60
2022-09-13T06:10:12.311Z,2.70
2022-09-13T06:12:39.948Z,2.70
2022-09-13T06:15:09.067Z,2.70
2022-09-13T06:17:36.033Z,2.60
2022-09-13T06:20:04.652Z,2.70
2022-09-13T06:22:35.071Z,2.67
2022-09-13T06:25:02.860Z,2.73
2022-09-13T06:27:31.325Z,2.70
2022-09-13T06:29:58.263Z,2.73
2022-09-13T06:32:26.147Z,2.70
2022-09-13T06:34:53.555Z,2.80
2022-09-13T06:37:21.564Z,2.77
2022-09-13T06:39:48.593Z,2.80
2022-09-13T06:42:16.053Z,3.10
2022-09-13T06:44:45.979Z,3.27
2022-09-13T06:47:13.515Z,2.97
2022-09-13T06:49:41.748Z,3.17
2022-09-13T06:52:09.155Z,3.13
2022-09-13T06:54:36.176Z,3.20
2022-09-13T06:57:03.687Z,3.03
2022-09-13T06:59:31.232Z,3.40
2022-09-13T07:01:58.662Z,3.20
2022-09-13T07:04:26.344Z,3.33
2022-09-13T07:06:54.364Z,3.03
2022-09-13T07:09:22.404Z,3.23
2022-09-13T07:11:53.093Z,3.00
2022-09-13T07:14:24.556Z,3.30
2022-09-13T07:16:52.547Z,3.00
2022-09-13T07:19:28.700Z,3.40
2022-09-13T07:21:57.100Z,3.03
2022-09-13T07:24:25.428Z,3.37
2022-09-13T07:26:53.282Z,3.13
2022-09-13T07:29:23.595Z,3.27
2022-09-13T07:31:54.477Z,3.27
2022-09-13T07:34:24.922Z,3.07
2022-09-13T07:36:52.884Z,3.07
2022-09-13T07:39:22.937Z,3.13
2022-09-13T07:41:53.459Z,3.40
2022-09-13T07:44:20.432Z,3.50
2022-09-13T07:46:47.897Z,3.67
2022-09-13T07:49:18.929Z,3.53
2022-09-13T07:51:46.580Z,4.30
2022-09-13T07:54:17.840Z,3.67
2022-09-13T07:56:45.475Z,3.50
2022-09-13T07:59:17.117Z,3.13
2022-09-13T08:03:37.310Z,2.70
2022-09-13T08:06:06.353Z,2.93
2022-09-13T08:08:35.650Z,3.30
2022-09-13T08:11:05.537Z,4.40
2022-09-13T08:13:33.384Z,4.50
2022-09-13T08:16:06.461Z,5.43
2022-09-13T08:18:34.429Z,4.60
2022-09-13T08:21:02.108Z,5.90
2022-09-13T08:23:31.098Z,5.93
2022-09-13T08:26:03.101Z,5.77
2022-09-13T08:28:31.580Z,6.00
2022-09-13T08:31:20.423Z,5.70
2022-09-13T08:33:49.164Z,5.93
2022-09-13T08:36:18.018Z,5.33
2022-09-13T08:38:54.195Z,5.87
2022-09-13T08:41:41.888Z,4.87
2022-09-13T08:44:53.238Z,5.03
2022-09-13T08:47:35.606Z,5.07
2022-09-13T08:50:31.842Z,4.90
2022-09-13T08:53:30.384Z,4.40
2022-09-13T08:56:03.971Z,3.70
2022-09-13T08:59:14.220Z,3.13
2022-09-13T09:02:12.892Z,2.30
2022-09-13T09:05:14.738Z,2.17
2022-09-13T09:08:16.234Z,2.33
2022-09-13T09:10:49.480Z,1.70
2022-09-13T09:13:29.187Z,1.80
2022-09-13T09:16:28.803Z,1.80
2022-09-13T09:19:47.769Z,1.70
2022-09-13T09:22:24.420Z,1.80
2022-09-13T09:24:56.346Z,2.47
2022-09-13T09:27:23.974Z,2.40
2022-09-13T09:29:58.215Z,2.87
2022-09-13T09:33:08.595Z,3.67
2022-09-13T09:36:06.932Z,3.83
2022-09-13T09:38:42.642Z,3.80
2022-09-13T09:41:29.583Z,3.20
2022-09-13T09:44:20.191Z,3.03
2022-09-13T09:47:14.507Z,2.60
2022-09-13T09:50:23.935Z,2.30
2022-09-13T09:53:10.180Z,2.13
2022-09-13T09:55:51.843Z,2.00
2022-09-13T09:58:35.896Z,2.07
2022-09-13T10:01:03.810Z,1.93
2022-09-13T10:03:34.265Z,1.90
2022-09-13T10:06:11.140Z,2.00
2022-09-13T10:08:42.359Z,2.03
2022-09-13T10:11:10.689Z,1.97
2022-09-13T10:13:38.670Z,2.00
2022-09-13T10:16:27.286Z,2.00
2022-09-13T10:18:55.665Z,2.00
2022-09-13T10:21:26.947Z,2.10
2022-09-13T10:24:20.240Z,2.20
2022-09-13T10:26:47.796Z,2.13
2022-09-13T10:29:17.670Z,2.00
2022-09-13T10:31:50.268Z,2.07
2022-09-13T10:34:31.644Z,2.00
2022-09-13T10:37:13.040Z,2.10
2022-09-13T10:39:55.133Z,2.03
2022-09-13T10:42:26.386Z,1.93
2022-09-13T10:45:08.817Z,2.00
2022-09-13T10:47:43.709Z,2.00
2022-09-13T10:50:22.279Z,1.87
2022-09-13T10:52:58.784Z,2.00
2022-09-13T10:55:33.233Z,1.90
2022-09-13T10:58:03.589Z,1.97
2022-09-13T11:01:06.521Z,1.80
2022-09-13T11:04:04.491Z,2.00
2022-09-13T11:07:08.517Z,1.90
2022-09-13T11:10:13.665Z,2.10
2022-09-13T11:13:22.694Z,1.90
2022-09-13T11:16:10.540Z,2.03
2022-09-13T11:18:53.961Z,2.20
2022-09-13T11:21:52.438Z,1.93
2022-09-13T11:24:58.061Z,2.30
2022-09-13T11:27:38.425Z,2.00
2022-09-13T11:30:20.725Z,1.80
2022-09-13T11:33:15.193Z,1.70
2022-09-13T11:36:29.786Z,1.70
2022-09-13T11:39:46.930Z,1.70
2022-09-13T11:42:44.091Z,1.70
2022-09-13T11:45:40.201Z,2.10
2022-09-13T11:48:29.938Z,2.90
2022-09-13T11:51:21.418Z,3.00
2022-09-13T11:54:32.026Z,3.10
2022-09-13T11:57:15.083Z,3.20
2022-09-13T11:59:55.914Z,3.10
2022-09-13T12:02:51.367Z,2.80
2022-09-13T12:05:24.882Z,2.43
2022-09-13T12:08:13.063Z,2.60
2022-09-13T12:10:53.614Z,2.63
2022-09-13T12:13:41.265Z,2.43
2022-09-13T12:16:15.361Z,2.30
2022-09-13T12:18:46.024Z,2.10
2022-09-13T12:21:23.290Z,2.23
2022-09-13T12:24:35.822Z,2.60
2022-09-13T12:27:34.352Z,2.20
2022-09-13T12:30:23.200Z,2.00
2022-09-13T12:32:58.080Z,1.93
2022-09-13T12:35:58.403Z,2.10
2022-09-13T12:39:06.334Z,2.10
2022-09-13T12:42:04.345Z,2.00
2022-09-13T12:45:25.281Z,2.00
2022-09-13T12:48:52.359Z,2.10
2022-09-13T12:51:45.979Z,2.10
2022-09-13T12:54:55.244Z,2.10
2022-09-13T12:58:00.951Z,2.00
2022-09-13T13:00:40.833Z,2.07
2022-09-13T13:03:13.867Z,2.10
2022-09-13T13:05:56.176Z,2.00
2022-09-13T13:08:27.936Z,2.13
2022-09-13T13:11:06.975Z,2.20
2022-09-13T13:13:42.414Z,2.20
2022-09-13T13:16:32.964Z,2.10
2022-09-13T13:19:29.697Z,2.20
2022-09-13T13:22:35.801Z,2.20
2022-09-13T13:25:31.023Z,2.17
2022-09-13T13:27:58.946Z,2.30
2022-09-13T13:30:50.717Z,2.40
2022-09-13T13:33:29.221Z,2.33
2022-09-13T13:35:56.708Z,2.27
2022-09-13T13:38:41.457Z,2.30
2022-09-13T13:41:40.745Z,2.13
2022-09-13T13:44:20.375Z,2.30
2022-09-13T13:46:50.935Z,2.20
2022-09-13T13:50:12.748Z,2.43
2022-09-13T13:52:55.812Z,2.13
2022-09-13T13:55:49.194Z,2.20
2022-09-13T13:58:42.505Z,2.30
2022-09-13T14:01:19.900Z,2.10
2022-09-13T14:04:05.932Z,2.00
2022-09-13T14:06:56.532Z,2.00
2022-09-13T14:09:53.898Z,2.17
2022-09-13T14:12:31.068Z,2.20
2022-09-13T14:15:40.934Z,2.27
2022-09-13T14:18:48.251Z,2.00
2022-09-13T14:21:26.542Z,2.10
2022-09-13T14:24:19.856Z,2.20
2022-09-13T14:26:50.642Z,2.10
2022-09-13T14:29:21.765Z,2.00
2022-09-13T14:31:53.075Z,2.00
2022-09-13T14:34:30.925Z,2.00
2022-09-13T14:37:02.842Z,2.20
2022-09-13T14:39:30.859Z,2.20
2022-09-13T14:42:15.577Z,2.13
2022-09-13T14:44:47.381Z,2.00
2022-09-13T14:47:36.632Z,2.10
2022-09-13T14:50:12.690Z,1.80
2022-09-13T14:52:50.558Z,2.00
2022-09-13T14:55:36.005Z,1.90
2022-09-13T14:58:15.810Z,1.90
2022-09-13T15:00:58.987Z,2.10
2022-09-13T15:03:27.692Z,1.93
2022-09-13T15:06:00.176Z,1.80
2022-09-13T15:08:33.765Z,1.87
2022-09-13T15:11:26.746Z,1.90
2022-09-13T15:14:34.999Z,1.80
2022-09-13T15:17:16.734Z,2.00
2022-09-13T15:20:03.642Z,1.90
2022-09-13T15:22:34.672Z,2.10
2022-09-13T15:25:03.298Z,2.10
2022-09-13T15:27:50.021Z,2.10
2022-09-13T15:30:28.735Z,1.90
2022-09-13T15:33:14.149Z,2.00
2022-09-13T15:35:44.475Z,2.00
2022-09-13T15:38:31.528Z,2.00
2022-09-13T15:41:12.174Z,2.03
2022-09-13T15:43:39.946Z,2.00
2022-09-13T15:46:11.917Z,2.10
2022-09-13T15:48:50.547Z,2.07
2022-09-13T15:51:18.302Z,2.00
2022-09-13T15:53:46.790Z,1.90
2022-09-13T15:56:18.627Z,2.00
2022-09-13T15:58:46.470Z,1.93
2022-09-13T16:01:16.556Z,1.90
2022-09-13T16:03:44.235Z,2.00
2022-09-13T16:06:11.813Z,1.90
2022-09-13T16:08:39.879Z,1.97
2022-09-13T16:11:08.158Z,1.90
2022-09-13T16:13:36.335Z,1.90
2022-09-13T16:16:05.100Z,1.90
2022-09-13T16:18:32.739Z,1.90
2022-09-13T16:21:00.172Z,1.93
2022-09-13T16:23:27.740Z,1.93
2022-09-13T16:25:58.643Z,2.00
2022-09-13T16:28:27.100Z,1.97
2022-09-13T16:30:54.942Z,2.10
2022-09-13T16:33:22.477Z,1.90
2022-09-13T16:35:49.907Z,1.90
2022-09-13T16:38:18.065Z,2.00
2022-09-13T16:40:45.544Z,2.03
2022-09-13T16:43:13.525Z,2.20
2022-09-13T16:45:42.128Z,2.20
2022-09-13T16:48:09.662Z,2.23
2022-09-13T16:50:40.782Z,2.43
2022-09-13T16:53:09.005Z,2.60
2022-09-13T16:55:39.004Z,2.63
2022-09-13T16:58:06.748Z,2.53
2022-09-13T17:00:33.705Z,2.70
2022-09-13T17:03:01.220Z,2.57
2022-09-13T17:05:28.253Z,3.30
2022-09-13T17:07:55.673Z,3.13
2022-09-13T17:10:24.032Z,3.57
2022-09-13T17:12:51.509Z,4.17
2022-09-13T17:15:19.044Z,4.73
2022-09-13T17:17:46.612Z,4.80
2022-09-13T17:20:14.473Z,5.30
2022-09-13T17:22:42.129Z,5.17
2022-09-13T17:25:10.314Z,5.07
2022-09-13T17:27:37.712Z,4.60
2022-09-13T17:30:06.594Z,4.90
2022-09-13T17:32:34.029Z,5.57
2022-09-13T17:35:01.550Z,5.23
2022-09-13T17:37:29.037Z,4.83
2022-09-13T17:39:56.818Z,4.17
2022-09-13T17:42:24.218Z,3.90
2022-09-13T17:44:51.931Z,4.00
2022-09-13T17:47:19.469Z,4.17
2022-09-13T17:49:47.633Z,4.47
2022-09-13T17:52:15.170Z,4.80
2022-09-13T17:54:42.690Z,5.30
2022-09-13T17:57:11.800Z,5.27
2022-09-13T17:59:39.331Z,5.87
2022-09-13T18:02:07.222Z,6.73
2022-09-13T18:04:34.765Z,6.40
2022-09-13T18:07:02.145Z,7.47
2022-09-13T18:09:29.677Z,6.70
2022-09-13T18:11:57.143Z,6.90
2022-09-13T18:14:26.376Z,7.00
2022-09-13T18:16:55.809Z,7.00
2022-09-13T18:19:44.395Z,7.87
2022-09-13T18:22:11.516Z,7.80
2022-09-13T18:24:38.990Z,7.70
2022-09-13T18:27:06.406Z,8.03
2022-09-13T18:29:33.840Z,8.93
2022-09-13T18:32:01.379Z,9.40
2022-09-13T18:34:28.814Z,9.10
2022-09-13T18:36:56.256Z,9.20
2022-09-13T18:39:23.740Z,8.70
2022-09-13T18:41:51.292Z,8.60
2022-09-13T18:44:19.737Z,9.63
2022-09-13T18:46:47.654Z,7.80
2022-09-13T18:49:15.332Z,8.90
2022-09-13T18:51:45.062Z,7.97
2022-09-13T18:54:18.378Z,8.87
2022-09-13T18:56:47.583Z,9.17
2022-09-13T18:59:15.364Z,9.60
2022-09-13T19:01:45.147Z,8.30
2022-09-13T19:04:19.298Z,10.70
2022-09-13T19:06:53.192Z,10.03
2022-09-13T19:09:22.677Z,10.80
2022-09-13T19:11:52.435Z,8.43
2022-09-13T19:14:26.935Z,10.57
2022-09-13T19:17:00.333Z,8.77
2022-09-13T19:19:27.950Z,10.30
2022-09-13T19:21:55.520Z,10.10
2022-09-13T19:24:23.230Z,10.40
2022-09-13T19:26:52.565Z,10.33
2022-09-13T19:29:22.741Z,9.77
2022-09-13T19:31:52.700Z,9.37
2022-09-13T19:34:22.859Z,9.20
2022-09-13T19:36:57.091Z,8.10
2022-09-13T19:39:29.142Z,7.20
2022-09-13T19:41:59.650Z,6.87
2022-09-13T19:44:26.847Z,6.80
2022-09-13T19:47:23.677Z,5.77
2022-09-13T19:49:41.795Z,4.90
2022-09-13T19:52:09.279Z,4.67
2022-09-13T19:54:36.675Z,4.40
2022-09-13T19:57:07.565Z,4.03
2022-09-13T19:59:34.583Z,3.67
2022-09-13T20:02:02.022Z,3.40
2022-09-13T20:04:30.236Z,3.43
2022-09-13T20:06:57.771Z,3.10
2022-09-13T20:09:25.809Z,3.20
2022-09-13T20:11:59.941Z,3.47
2022-09-13T20:14:27.865Z,3.70
2022-09-13T20:16:55.292Z,3.60
2022-09-13T20:19:40.552Z,3.90
2022-09-13T20:22:09.551Z,3.53
2022-09-13T20:24:37.026Z,3.60
2022-09-13T20:27:04.872Z,3.47
2022-09-13T20:29:32.316Z,3.80
2022-09-13T20:32:01.970Z,3.90
2022-09-13T20:34:29.457Z,3.53
2022-09-13T20:36:57.035Z,3.70
2022-09-13T20:39:23.974Z,3.50
2022-09-13T20:41:51.634Z,3.60
2022-09-13T20:44:19.061Z,3.73
2022-09-13T20:46:46.571Z,3.40
2022-09-13T20:49:16.675Z,3.73
2022-09-13T20:51:45.889Z,3.57
2022-09-13T20:54:13.753Z,3.70
2022-09-13T20:56:41.190Z,3.30
2022-09-13T20:59:09.924Z,3.63
2022-09-13T21:01:37.488Z,3.43
2022-09-13T21:04:05.155Z,4.00
2022-09-13T21:06:39.667Z,3.77
2022-09-13T21:09:07.057Z,3.93
2022-09-13T21:11:36.660Z,3.90
2022-09-13T21:14:09.325Z,4.13
2022-09-13T21:16:40.559Z,4.00
2022-09-13T21:19:09.034Z,3.83
2022-09-13T21:21:40.665Z,3.60
2022-09-13T21:24:12.420Z,4.13
2022-09-13T21:26:43.289Z,3.73
2022-09-13T21:29:12.392Z,3.97
2022-09-13T21:31:41.061Z,3.67
2022-09-13T21:34:17.459Z,4.10
2022-09-13T21:36:46.557Z,3.70
2022-09-13T21:39:15.155Z,3.93
2022-09-13T21:41:43.372Z,3.97
2022-09-13T21:44:11.181Z,4.37
2022-09-13T21:46:40.498Z,3.90
2022-09-13T21:49:13.694Z,4.33
2022-09-13T21:51:53.922Z,4.10
2022-09-13T21:54:21.479Z,4.70
2022-09-13T21:56:53.718Z,3.97
2022-09-13T21:59:23.048Z,4.50
2022-09-13T22:01:52.773Z,4.20
2022-09-13T22:04:27.007Z,4.70
2022-09-13T22:06:55.126Z,4.10
2022-09-13T22:09:27.007Z,4.50
2022-09-13T22:11:55.435Z,4.47
2022-09-13T22:14:22.975Z,4.90
2022-09-13T22:16:52.532Z,4.07
2022-09-13T22:19:26.662Z,4.40
2022-09-13T22:21:59.685Z,4.27
2022-09-13T22:24:32.035Z,4.90
2022-09-13T22:27:00.220Z,4.27
2022-09-13T22:29:28.768Z,4.43
2022-09-13T22:31:56.600Z,4.17
2022-09-13T22:34:25.867Z,4.57
2022-09-13T22:36:56.472Z,4.00
2022-09-13T22:39:24.062Z,4.63
2022-09-13T22:41:51.722Z,4.20
2022-09-13T22:44:19.217Z,4.37
2022-09-13T22:46:47.290Z,4.00
2022-09-13T22:49:18.129Z,4.40
2022-09-13T22:51:47.393Z,3.90
2022-09-13T22:54:16.861Z,4.50
2022-09-13T22:56:45.029Z,3.93
2022-09-13T22:59:20.850Z,4.60
2022-09-13T23:01:49.081Z,3.97
2022-09-13T23:04:17.067Z,4.13
2022-09-13T23:06:45.261Z,4.00
2022-09-13T23:09:18.426Z,4.57
2022-09-13T23:11:46.143Z,3.93
2022-09-13T23:14:16.396Z,4.30
2022-09-13T23:16:50.419Z,4.30
2022-09-13T23:19:21.844Z,4.30
2022-09-13T23:21:49.730Z,4.20
2022-09-13T23:24:18.455Z,4.40
2022-09-13T23:26:46.676Z,3.67
2022-09-13T23:29:17.868Z,4.37
2022-09-13T23:31:47.040Z,4.07
2022-09-13T23:34:15.491Z,4.77
2022-09-13T23:36:44.868Z,4.40
2022-09-13T23:39:19.094Z,4.30
2022-09-13T23:41:48.867Z,4.17
2022-09-13T23:44:16.977Z,4.60
2022-09-13T23:46:44.789Z,4.27
2022-09-13T23:49:12.211Z,4.37
2022-09-13T23:51:39.769Z,4.43
2022-09-13T23:54:08.103Z,4.03
2022-09-13T23:56:35.908Z,4.30
2022-09-13T23:59:04.249Z,4.27
